Startpagina
METAR-TAF:

METAR-TAF

Vliegvelden :

Auckland, Nieuw-Zeeland

Luchthaven van Auckland

breedte: 37-01S, lengte: 174-48E, hoogte: 7 m

Actueel weer

Dit bericht is 36 minuten geleden gemaakt, om 00:30 UTC
Wind 13 kt uit het zuidoosten
Temperatuur 18°C
Vochtigheid 59%
Druk 1012 hPa
Zicht 10 km of meer

METAR: NZAA 190030Z AUTO 14013KT 9999 OVC075/// 18/10 Q1012 NOSIG

Tijdstip: 14:06 (01:06 UTC)

Verwachting

Dit bericht is 2 uur en het 6 minuten geleden gemaakt, om 23:00 UTC
Verwachting geldig van 19 om 00 UTC tot 20 om 00 UTC
Wind 12 kt uit het zuidzuidoosten
Zicht 10 km of meer
Verspreide wolken op 5000 ft
lichte regen
Van 19 om 0200 UTC
Wind 12 kt uit het zuidzuidwesten
Zicht 10 km of meer
Verspreide wolken op 5000 ft
Wijzigt naar
van 19 om 06 UTC tot 19 om 08 UTC
Wind 8 kt uit het zuidzuidoosten

TAF: NZAA 182300Z 1900/2000 15012KT 9999 -RA SCT050 FM190200 21012KT 9999 SCT050 BECMG 1906/1908 15008KT

Waarnemingen en weersverwachtingen van meer dan 4000 vliegvelden (METAR en TAF).

De beschikbare stations zijn de gele en rode punten op de kaart.

Ga met uw muis naar het station om de naam te zien.

Klik dan om waarnemingen en weersverwachtingen te zien.

kaart wijzigen: klik op de groene knoppen met een zwart kruis om in te zoomen, op de groene knop met een streepje om uit te zoomen of op de groene pijlen voor aangrenzende kaarten.


METAR-TAF: